sensor_id;sensor_type;location;lat;lon;timestamp;temperature;humidity
20856;DHT22;63058;49.424;8.420;2023-04-15T00:00:29;11.30;71.00
20856;DHT22;63058;49.424;8.420;2023-04-15T00:02:54;11.20;71.40
20856;DHT22;63058;49.424;8.420;2023-04-15T00:05:20;11.10;70.50
20856;DHT22;63058;49.424;8.420;2023-04-15T00:07:46;11.00;70.60
20856;DHT22;63058;49.424;8.420;2023-04-15T00:10:12;10.80;70.70
20856;DHT22;63058;49.424;8.420;2023-04-15T00:12:39;10.70;71.70
20856;DHT22;63058;49.424;8.420;2023-04-15T00:15:05;10.60;71.50
20856;DHT22;63058;49.424;8.420;2023-04-15T00:17:32;10.60;72.20
20856;DHT22;63058;49.424;8.420;2023-04-15T00:19:58;10.70;72.30
20856;DHT22;63058;49.424;8.420;2023-04-15T00:22:25;10.70;72.30
20856;DHT22;63058;49.424;8.420;2023-04-15T00:24:52;10.70;72.60
20856;DHT22;63058;49.424;8.420;2023-04-15T00:27:18;10.70;72.50
20856;DHT22;63058;49.424;8.420;2023-04-15T00:29:44;10.70;72.50
20856;DHT22;63058;49.424;8.420;2023-04-15T00:32:09;10.70;72.50
20856;DHT22;63058;49.424;8.420;2023-04-15T00:34:35;10.70;72.40
20856;DHT22;63058;49.424;8.420;2023-04-15T00:37:01;10.70;72.30
20856;DHT22;63058;49.424;8.420;2023-04-15T00:39:27;10.70;72.30
20856;DHT22;63058;49.424;8.420;2023-04-15T00:41:53;10.70;72.60
20856;DHT22;63058;49.424;8.420;2023-04-15T00:44:19;10.70;72.80
20856;DHT22;63058;49.424;8.420;2023-04-15T00:46:45;10.70;73.10
20856;DHT22;63058;49.424;8.420;2023-04-15T00:49:11;10.80;73.00
20856;DHT22;63058;49.424;8.420;2023-04-15T00:51:37;10.80;72.70
20856;DHT22;63058;49.424;8.420;2023-04-15T00:54:03;10.80;72.70
20856;DHT22;63058;49.424;8.420;2023-04-15T00:56:30;10.70;72.70
20856;DHT22;63058;49.424;8.420;2023-04-15T00:58:57;10.70;72.60
20856;DHT22;63058;49.424;8.420;2023-04-15T01:01:24;10.60;72.80
20856;DHT22;63058;49.424;8.420;2023-04-15T01:03:50;10.60;72.80
20856;DHT22;63058;49.424;8.420;2023-04-15T01:06:17;10.60;72.80
20856;DHT22;63058;49.424;8.420;2023-04-15T01:08:43;10.50;72.80
20856;DHT22;63058;49.424;8.420;2023-04-15T01:11:10;10.50;72.80
20856;DHT22;63058;49.424;8.420;2023-04-15T01:13:37;10.50;72.80
20856;DHT22;63058;49.424;8.420;2023-04-15T01:16:02;10.40;73.10
20856;DHT22;63058;49.424;8.420;2023-04-15T01:18:29;10.40;73.40
20856;DHT22;63058;49.424;8.420;2023-04-15T01:20:55;10.30;74.10
20856;DHT22;63058;49.424;8.420;2023-04-15T01:23:21;10.30;73.30
20856;DHT22;63058;49.424;8.420;2023-04-15T01:25:48;10.30;73.10
20856;DHT22;63058;49.424;8.420;2023-04-15T01:28:15;10.20;73.00
20856;DHT22;63058;49.424;8.420;2023-04-15T01:30:40;10.30;73.00
20856;DHT22;63058;49.424;8.420;2023-04-15T01:33:06;10.10;73.00
20856;DHT22;63058;49.424;8.420;2023-04-15T01:35:32;10.10;73.40
20856;DHT22;63058;49.424;8.420;2023-04-15T01:38:04;10.00;73.80
20856;DHT22;63058;49.424;8.420;2023-04-15T01:40:31;9.90;74.10
20856;DHT22;63058;49.424;8.420;2023-04-15T01:42:56;10.00;74.40
20856;DHT22;63058;49.424;8.420;2023-04-15T01:45:22;10.00;74.90
20856;DHT22;63058;49.424;8.420;2023-04-15T01:47:48;10.10;74.80
20856;DHT22;63058;49.424;8.420;2023-04-15T01:50:13;10.10;74.40
20856;DHT22;63058;49.424;8.420;2023-04-15T01:52:39;10.20;73.90
20856;DHT22;63058;49.424;8.420;2023-04-15T01:55:06;10.20;74.00
20856;DHT22;63058;49.424;8.420;2023-04-15T01:57:33;10.00;74.40
20856;DHT22;63058;49.424;8.420;2023-04-15T01:59:58;10.00;74.50
20856;DHT22;63058;49.424;8.420;2023-04-15T02:02:24;10.00;74.10
20856;DHT22;63058;49.424;8.420;2023-04-15T02:04:50;10.10;74.30
20856;DHT22;63058;49.424;8.420;2023-04-15T02:07:15;9.90;75.00
20856;DHT22;63058;49.424;8.420;2023-04-15T02:09:42;9.90;75.00
20856;DHT22;63058;49.424;8.420;2023-04-15T02:12:08;9.90;74.70
20856;DHT22;63058;49.424;8.420;2023-04-15T02:14:34;9.90;74.60
20856;DHT22;63058;49.424;8.420;2023-04-15T02:17:00;9.90;74.20
20856;DHT22;63058;49.424;8.420;2023-04-15T02:19:35;9.90;74.10
20856;DHT22;63058;49.424;8.420;2023-04-15T02:22:02;9.80;74.00
20856;DHT22;63058;49.424;8.420;2023-04-15T02:24:29;9.70;74.40
20856;DHT22;63058;49.424;8.420;2023-04-15T02:26:55;9.60;74.60
20856;DHT22;63058;49.424;8.420;2023-04-15T02:29:20;9.60;75.00
20856;DHT22;63058;49.424;8.420;2023-04-15T02:31:48;9.60;75.10
20856;DHT22;63058;49.424;8.420;2023-04-15T02:34:14;9.60;74.90
20856;DHT22;63058;49.424;8.420;2023-04-15T02:36:39;9.50;75.00
20856;DHT22;63058;49.424;8.420;2023-04-15T02:39:05;9.50;75.60
20856;DHT22;63058;49.424;8.420;2023-04-15T02:41:31;9.50;75.90
20856;DHT22;63058;49.424;8.420;2023-04-15T02:43:57;9.50;75.40
20856;DHT22;63058;49.424;8.420;2023-04-15T02:46:22;9.50;75.20
20856;DHT22;63058;49.424;8.420;2023-04-15T02:48:49;9.50;75.20
20856;DHT22;63058;49.424;8.420;2023-04-15T02:51:16;9.50;75.00
20856;DHT22;63058;49.424;8.420;2023-04-15T02:53:44;9.40;74.70
20856;DHT22;63058;49.424;8.420;2023-04-15T02:56:10;9.30;75.20
20856;DHT22;63058;49.424;8.420;2023-04-15T02:58:37;9.30;75.50
20856;DHT22;63058;49.424;8.420;2023-04-15T03:01:03;9.30;75.20
20856;DHT22;63058;49.424;8.420;2023-04-15T03:03:29;9.20;75.20
20856;DHT22;63058;49.424;8.420;2023-04-15T03:05:55;9.10;75.30
20856;DHT22;63058;49.424;8.420;2023-04-15T03:08:21;9.10;75.50
20856;DHT22;63058;49.424;8.420;2023-04-15T03:10:47;9.10;75.60
20856;DHT22;63058;49.424;8.420;2023-04-15T03:13:13;9.20;75.50
20856;DHT22;63058;49.424;8.420;2023-04-15T03:15:39;9.00;75.20
20856;DHT22;63058;49.424;8.420;2023-04-15T03:18:05;8.90;75.20
20856;DHT22;63058;49.424;8.420;2023-04-15T03:20:30;8.90;75.50
20856;DHT22;63058;49.424;8.420;2023-04-15T03:22:57;8.70;75.50
20856;DHT22;63058;49.424;8.420;2023-04-15T03:25:22;8.60;76.00
20856;DHT22;63058;49.424;8.420;2023-04-15T03:27:48;8.60;76.30
20856;DHT22;63058;49.424;8.420;2023-04-15T03:30:14;8.60;76.60
20856;DHT22;63058;49.424;8.420;2023-04-15T03:32:39;8.60;76.70
20856;DHT22;63058;49.424;8.420;2023-04-15T03:35:05;8.60;76.60
20856;DHT22;63058;49.424;8.420;2023-04-15T03:37:31;8.70;76.50
20856;DHT22;63058;49.424;8.420;2023-04-15T03:39:57;8.70;76.70
20856;DHT22;63058;49.424;8.420;2023-04-15T03:42:22;8.70;77.00
20856;DHT22;63058;49.424;8.420;2023-04-15T03:44:48;8.80;77.30
20856;DHT22;63058;49.424;8.420;2023-04-15T03:47:14;8.80;77.30
20856;DHT22;63058;49.424;8.420;2023-04-15T03:49:40;8.90;77.00
20856;DHT22;63058;49.424;8.420;2023-04-15T03:52:05;8.90;76.60
20856;DHT22;63058;49.424;8.420;2023-04-15T03:54:31;8.90;76.30
20856;DHT22;63058;49.424;8.420;2023-04-15T03:56:57;8.80;76.30
20856;DHT22;63058;49.424;8.420;2023-04-15T03:59:22;8.80;76.20
20856;DHT22;63058;49.424;8.420;2023-04-15T04:01:48;8.80;76.00
20856;DHT22;63058;49.424;8.420;2023-04-15T04:04:14;8.70;76.20
20856;DHT22;63058;49.424;8.420;2023-04-15T04:06:41;8.70;76.90
20856;DHT22;63058;49.424;8.420;2023-04-15T04:09:07;8.60;77.20
20856;DHT22;63058;49.424;8.420;2023-04-15T04:11:32;8.70;77.10
20856;DHT22;63058;49.424;8.420;2023-04-15T04:13:58;8.70;77.30
20856;DHT22;63058;49.424;8.420;2023-04-15T04:16:24;8.70;77.10
20856;DHT22;63058;49.424;8.420;2023-04-15T04:18:49;8.70;76.80
20856;DHT22;63058;49.424;8.420;2023-04-15T04:21:15;8.70;76.70
20856;DHT22;63058;49.424;8.420;2023-04-15T04:23:41;8.70;76.50
20856;DHT22;63058;49.424;8.420;2023-04-15T04:26:07;8.60;76.40
20856;DHT22;63058;49.424;8.420;2023-04-15T04:28:33;8.60;76.50
20856;DHT22;63058;49.424;8.420;2023-04-15T04:30:59;8.50;76.80
20856;DHT22;63058;49.424;8.420;2023-04-15T04:33:25;8.50;77.30
20856;DHT22;63058;49.424;8.420;2023-04-15T04:35:51;8.60;77.70
20856;DHT22;63058;49.424;8.420;2023-04-15T04:38:17;8.50;77.70
20856;DHT22;63058;49.424;8.420;2023-04-15T04:40:42;8.50;78.00
20856;DHT22;63058;49.424;8.420;2023-04-15T04:43:08;8.50;77.80
20856;DHT22;63058;49.424;8.420;2023-04-15T04:45:34;8.60;77.60
20856;DHT22;63058;49.424;8.420;2023-04-15T04:48:00;8.60;77.60
20856;DHT22;63058;49.424;8.420;2023-04-15T04:50:26;8.60;77.50
20856;DHT22;63058;49.424;8.420;2023-04-15T04:52:51;8.60;77.70
20856;DHT22;63058;49.424;8.420;2023-04-15T04:55:17;8.50;77.50
20856;DHT22;63058;49.424;8.420;2023-04-15T04:57:43;8.30;77.60
20856;DHT22;63058;49.424;8.420;2023-04-15T05:00:09;8.50;77.70
20856;DHT22;63058;49.424;8.420;2023-04-15T05:02:35;8.40;77.50
20856;DHT22;63058;49.424;8.420;2023-04-15T05:05:01;8.60;77.80
20856;DHT22;63058;49.424;8.420;2023-04-15T05:07:26;8.40;78.40
20856;DHT22;63058;49.424;8.420;2023-04-15T05:09:52;8.40;78.50
20856;DHT22;63058;49.424;8.420;2023-04-15T05:12:18;8.50;78.60
20856;DHT22;63058;49.424;8.420;2023-04-15T05:14:43;8.50;78.70
20856;DHT22;63058;49.424;8.420;2023-04-15T05:17:11;8.40;78.70
20856;DHT22;63058;49.424;8.420;2023-04-15T05:19:36;8.60;79.20
20856;DHT22;63058;49.424;8.420;2023-04-15T05:22:02;8.70;79.20
20856;DHT22;63058;49.424;8.420;2023-04-15T05:24:28;8.80;79.10
20856;DHT22;63058;49.424;8.420;2023-04-15T05:26:54;8.80;78.50
20856;DHT22;63058;49.424;8.420;2023-04-15T05:29:20;9.00;78.50
20856;DHT22;63058;49.424;8.420;2023-04-15T05:31:49;8.80;78.20
20856;DHT22;63058;49.424;8.420;2023-04-15T05:34:15;8.70;78.40
20856;DHT22;63058;49.424;8.420;2023-04-15T05:36:42;8.70;78.60
20856;DHT22;63058;49.424;8.420;2023-04-15T05:39:08;8.80;79.00
20856;DHT22;63058;49.424;8.420;2023-04-15T05:41:34;8.80;79.30
20856;DHT22;63058;49.424;8.420;2023-04-15T05:43:59;9.00;79.60
20856;DHT22;63058;49.424;8.420;2023-04-15T05:46:25;9.00;79.30
20856;DHT22;63058;49.424;8.420;2023-04-15T05:48:59;9.00;79.00
20856;DHT22;63058;49.424;8.420;2023-04-15T05:51:24;9.00;79.00
20856;DHT22;63058;49.424;8.420;2023-04-15T05:53:51;9.10;79.20
20856;DHT22;63058;49.424;8.420;2023-04-15T05:56:18;9.10;79.00
20856;DHT22;63058;49.424;8.420;2023-04-15T05:58:45;9.10;79.00
20856;DHT22;63058;49.424;8.420;2023-04-15T06:01:12;9.10;79.10
20856;DHT22;63058;49.424;8.420;2023-04-15T06:03:38;9.10;79.40
20856;DHT22;63058;49.424;8.420;2023-04-15T06:06:04;9.10;79.50
20856;DHT22;63058;49.424;8.420;2023-04-15T06:08:29;9.20;79.60
20856;DHT22;63058;49.424;8.420;2023-04-15T06:10:58;9.10;79.80
20856;DHT22;63058;49.424;8.420;2023-04-15T06:13:26;9.30;80.10
20856;DHT22;63058;49.424;8.420;2023-04-15T06:15:58;9.40;80.10
20856;DHT22;63058;49.424;8.420;2023-04-15T06:18:29;9.50;80.10
20856;DHT22;63058;49.424;8.420;2023-04-15T06:20:55;9.50;80.10
20856;DHT22;63058;49.424;8.420;2023-04-15T06:23:21;9.70;80.30
20856;DHT22;63058;49.424;8.420;2023-04-15T06:25:47;9.80;80.60
20856;DHT22;63058;49.424;8.420;2023-04-15T06:28:14;9.80;80.60
20856;DHT22;63058;49.424;8.420;2023-04-15T06:30:40;9.80;80.80
20856;DHT22;63058;49.424;8.420;2023-04-15T06:33:07;10.00;81.60
20856;DHT22;63058;49.424;8.420;2023-04-15T06:35:33;10.10;80.70
20856;DHT22;63058;49.424;8.420;2023-04-15T06:37:59;10.20;80.90
20856;DHT22;63058;49.424;8.420;2023-04-15T06:40:28;10.20;81.00
20856;DHT22;63058;49.424;8.420;2023-04-15T06:42:57;10.30;81.10
20856;DHT22;63058;49.424;8.420;2023-04-15T06:45:23;10.30;80.90
20856;DHT22;63058;49.424;8.420;2023-04-15T06:47:49;10.40;81.00
20856;DHT22;63058;49.424;8.420;2023-04-15T06:50:16;10.40;81.20
20856;DHT22;63058;49.424;8.420;2023-04-15T06:52:41;10.50;81.40
20856;DHT22;63058;49.424;8.420;2023-04-15T06:55:07;10.60;81.50
20856;DHT22;63058;49.424;8.420;2023-04-15T06:57:33;10.70;81.70
20856;DHT22;63058;49.424;8.420;2023-04-15T06:59:59;10.80;81.60
20856;DHT22;63058;49.424;8.420;2023-04-15T07:02:25;10.80;81.50
20856;DHT22;63058;49.424;8.420;2023-04-15T07:04:51;10.90;81.40
20856;DHT22;63058;49.424;8.420;2023-04-15T07:07:17;11.00;81.50
20856;DHT22;63058;49.424;8.420;2023-04-15T07:09:43;11.10;81.40
20856;DHT22;63058;49.424;8.420;2023-04-15T07:12:09;11.10;82.00
20856;DHT22;63058;49.424;8.420;2023-04-15T07:14:34;11.20;81.30
20856;DHT22;63058;49.424;8.420;2023-04-15T07:17:00;11.30;81.50
20856;DHT22;63058;49.424;8.420;2023-04-15T07:19:27;11.30;81.70
20856;DHT22;63058;49.424;8.420;2023-04-15T07:21:52;11.40;81.90
20856;DHT22;63058;49.424;8.420;2023-04-15T07:24:18;11.50;82.10
20856;DHT22;63058;49.424;8.420;2023-04-15T07:26:45;11.60;82.30
20856;DHT22;63058;49.424;8.420;2023-04-15T07:29:10;11.70;82.40
20856;DHT22;63058;49.424;8.420;2023-04-15T07:31:36;11.80;82.50
20856;DHT22;63058;49.424;8.420;2023-04-15T07:34:02;11.90;82.70
20856;DHT22;63058;49.424;8.420;2023-04-15T07:36:29;12.10;82.60
20856;DHT22;63058;49.424;8.420;2023-04-15T07:38:55;12.20;82.70
20856;DHT22;63058;49.424;8.420;2023-04-15T07:41:22;12.30;82.50
20856;DHT22;63058;49.424;8.420;2023-04-15T07:43:48;12.50;82.50
20856;DHT22;63058;49.424;8.420;2023-04-15T07:46:14;12.60;82.70
20856;DHT22;63058;49.424;8.420;2023-04-15T07:48:39;12.80;82.60
20856;DHT22;63058;49.424;8.420;2023-04-15T07:51:06;12.90;82.40
20856;DHT22;63058;49.424;8.420;2023-04-15T07:53:32;13.10;82.40
20856;DHT22;63058;49.424;8.420;2023-04-15T07:55:58;13.20;82.30
20856;DHT22;63058;49.424;8.420;2023-04-15T07:58:27;13.30;82.60
20856;DHT22;63058;49.424;8.420;2023-04-15T08:00:52;13.50;82.70
20856;DHT22;63058;49.424;8.420;2023-04-15T08:03:21;13.60;82.50
20856;DHT22;63058;49.424;8.420;2023-04-15T08:05:47;13.70;81.90
20856;DHT22;63058;49.424;8.420;2023-04-15T08:08:13;13.90;82.00
20856;DHT22;63058;49.424;8.420;2023-04-15T08:10:39;14.00;81.80
20856;DHT22;63058;49.424;8.420;2023-04-15T08:13:05;14.00;81.40
20856;DHT22;63058;49.424;8.420;2023-04-15T08:15:32;14.20;81.30
20856;DHT22;63058;49.424;8.420;2023-04-15T08:17:58;14.20;81.00
20856;DHT22;63058;49.424;8.420;2023-04-15T08:20:25;14.20;81.20
20856;DHT22;63058;49.424;8.420;2023-04-15T08:22:51;14.30;81.00
20856;DHT22;63058;49.424;8.420;2023-04-15T08:25:17;14.30;81.10
20856;DHT22;63058;49.424;8.420;2023-04-15T08:27:44;14.40;81.30
20856;DHT22;63058;49.424;8.420;2023-04-15T08:30:10;14.50;81.40
20856;DHT22;63058;49.424;8.420;2023-04-15T08:32:44;14.70;81.50
20856;DHT22;63058;49.424;8.420;2023-04-15T08:35:11;14.80;81.50
20856;DHT22;63058;49.424;8.420;2023-04-15T08:37:40;14.80;81.50
20856;DHT22;63058;49.424;8.420;2023-04-15T08:42:36;15.10;80.90
20856;DHT22;63058;49.424;8.420;2023-04-15T08:45:09;15.10;80.00
20856;DHT22;63058;49.424;8.420;2023-04-15T08:47:38;15.20;80.50
20856;DHT22;63058;49.424;8.420;2023-04-15T08:50:08;15.30;80.50
20856;DHT22;63058;49.424;8.420;2023-04-15T08:52:37;15.40;80.00
20856;DHT22;63058;49.424;8.420;2023-04-15T08:55:13;15.40;80.90
20856;DHT22;63058;49.424;8.420;2023-04-15T09:04:15;15.80;79.90
20856;DHT22;63058;49.424;8.420;2023-04-15T09:06:41;16.00;80.80
20856;DHT22;63058;49.424;8.420;2023-04-15T09:09:09;16.00;81.30
20856;DHT22;63058;49.424;8.420;2023-04-15T09:11:34;16.20;81.00
20856;DHT22;63058;49.424;8.420;2023-04-15T09:14:01;16.30;81.30
20856;DHT22;63058;49.424;8.420;2023-04-15T09:16:26;16.50;81.00
20856;DHT22;63058;49.424;8.420;2023-04-15T09:18:53;16.60;80.90
20856;DHT22;63058;49.424;8.420;2023-04-15T09:21:18;16.70;81.50
20856;DHT22;63058;49.424;8.420;2023-04-15T09:24:00;16.80;80.30
20856;DHT22;63058;49.424;8.420;2023-04-15T09:26:36;17.00;79.50
20856;DHT22;63058;49.424;8.420;2023-04-15T09:29:10;17.10;79.60
20856;DHT22;63058;49.424;8.420;2023-04-15T09:31:40;17.20;79.80
20856;DHT22;63058;49.424;8.420;2023-04-15T09:34:07;17.40;79.10
20856;DHT22;63058;49.424;8.420;2023-04-15T09:39:16;17.60;76.20
20856;DHT22;63058;49.424;8.420;2023-04-15T09:41:42;17.70;76.50
20856;DHT22;63058;49.424;8.420;2023-04-15T09:44:29;17.80;77.50
20856;DHT22;63058;49.424;8.420;2023-04-15T09:46:54;17.90;76.30
20856;DHT22;63058;49.424;8.420;2023-04-15T09:49:20;18.10;77.50
20856;DHT22;63058;49.424;8.420;2023-04-15T09:51:46;18.20;77.70
20856;DHT22;63058;49.424;8.420;2023-04-15T09:54:11;18.40;77.90
20856;DHT22;63058;49.424;8.420;2023-04-15T09:56:38;18.60;77.40
20856;DHT22;63058;49.424;8.420;2023-04-15T09:59:07;18.70;76.80
20856;DHT22;63058;49.424;8.420;2023-04-15T10:01:33;18.80;75.40
20856;DHT22;63058;49.424;8.420;2023-04-15T10:04:02;19.00;75.70
20856;DHT22;63058;49.424;8.420;2023-04-15T10:06:28;19.10;73.40
20856;DHT22;63058;49.424;8.420;2023-04-15T10:08:56;19.10;73.40
20856;DHT22;63058;49.424;8.420;2023-04-15T10:11:22;19.10;73.10
20856;DHT22;63058;49.424;8.420;2023-04-15T10:13:49;19.10;73.40
20856;DHT22;63058;49.424;8.420;2023-04-15T10:16:19;19.10;74.10
20856;DHT22;63058;49.424;8.420;2023-04-15T10:18:47;19.20;73.40
20856;DHT22;63058;49.424;8.420;2023-04-15T10:21:13;19.30;73.90
20856;DHT22;63058;49.424;8.420;2023-04-15T10:23:44;19.30;71.70
20856;DHT22;63058;49.424;8.420;2023-04-15T10:26:10;19.40;71.60
20856;DHT22;63058;49.424;8.420;2023-04-15T10:28:37;19.40;71.20
20856;DHT22;63058;49.424;8.420;2023-04-15T10:31:03;19.50;71.10
20856;DHT22;63058;49.424;8.420;2023-04-15T10:33:30;19.60;70.10
20856;DHT22;63058;49.424;8.420;2023-04-15T10:35:56;19.60;70.70
20856;DHT22;63058;49.424;8.420;2023-04-15T10:38:45;19.70;70.10
20856;DHT22;63058;49.424;8.420;2023-04-15T10:41:18;19.70;67.80
20856;DHT22;63058;49.424;8.420;2023-04-15T10:43:49;19.70;69.20
20856;DHT22;63058;49.424;8.420;2023-04-15T10:51:46;19.80;68.40
20856;DHT22;63058;49.424;8.420;2023-04-15T10:59:31;20.20;68.60
20856;DHT22;63058;49.424;8.420;2023-04-15T11:02:03;20.50;70.90
20856;DHT22;63058;49.424;8.420;2023-04-15T11:04:55;20.80;68.90
20856;DHT22;63058;49.424;8.420;2023-04-15T11:12:43;21.30;66.20
20856;DHT22;63058;49.424;8.420;2023-04-15T11:17:58;21.40;62.50
20856;DHT22;63058;49.424;8.420;2023-04-15T11:20:24;21.40;65.00
20856;DHT22;63058;49.424;8.420;2023-04-15T11:22:51;21.50;65.40
20856;DHT22;63058;49.424;8.420;2023-04-15T11:25:22;21.50;66.10
20856;DHT22;63058;49.424;8.420;2023-04-15T11:27:48;21.60;62.90
20856;DHT22;63058;49.424;8.420;2023-04-15T11:30:18;21.70;63.60
20856;DHT22;63058;49.424;8.420;2023-04-15T11:32:46;21.80;60.50
20856;DHT22;63058;49.424;8.420;2023-04-15T11:35:11;21.80;62.80
20856;DHT22;63058;49.424;8.420;2023-04-15T11:37:37;21.80;62.90
20856;DHT22;63058;49.424;8.420;2023-04-15T11:40:03;21.90;63.80
20856;DHT22;63058;49.424;8.420;2023-04-15T11:42:29;22.00;64.10
20856;DHT22;63058;49.424;8.420;2023-04-15T11:45:12;22.10;60.10
20856;DHT22;63058;49.424;8.420;2023-04-15T11:47:39;22.20;58.30
20856;DHT22;63058;49.424;8.420;2023-04-15T11:50:22;22.20;59.70
20856;DHT22;63058;49.424;8.420;2023-04-15T11:52:55;22.20;59.30
20856;DHT22;63058;49.424;8.420;2023-04-15T11:55:24;22.10;61.20
20856;DHT22;63058;49.424;8.420;2023-04-15T12:00:37;21.80;58.40
20856;DHT22;63058;49.424;8.420;2023-04-15T12:03:24;21.60;57.30
20856;DHT22;63058;49.424;8.420;2023-04-15T12:11:15;21.00;57.00
20856;DHT22;63058;49.424;8.420;2023-04-15T12:13:48;20.90;56.00
20856;DHT22;63058;49.424;8.420;2023-04-15T12:16:18;20.80;55.40
20856;DHT22;63058;49.424;8.420;2023-04-15T12:18:54;20.60;57.60
20856;DHT22;63058;49.424;8.420;2023-04-15T12:21:26;20.60;55.70
20856;DHT22;63058;49.424;8.420;2023-04-15T12:23:56;20.50;55.10
20856;DHT22;63058;49.424;8.420;2023-04-15T12:26:42;20.50;57.10
20856;DHT22;63058;49.424;8.420;2023-04-15T12:29:09;20.50;55.50
20856;DHT22;63058;49.424;8.420;2023-04-15T12:31:35;20.50;57.90
20856;DHT22;63058;49.424;8.420;2023-04-15T12:34:07;20.50;57.20
20856;DHT22;63058;49.424;8.420;2023-04-15T12:36:33;20.40;54.90
20856;DHT22;63058;49.424;8.420;2023-04-15T12:39:04;20.30;54.00
20856;DHT22;63058;49.424;8.420;2023-04-15T12:41:33;20.20;54.30
20856;DHT22;63058;49.424;8.420;2023-04-15T12:43:59;20.00;55.30
20856;DHT22;63058;49.424;8.420;2023-04-15T12:46:25;19.80;56.00
20856;DHT22;63058;49.424;8.420;2023-04-15T12:48:51;19.70;55.40
20856;DHT22;63058;49.424;8.420;2023-04-15T12:51:17;19.60;56.10
20856;DHT22;63058;49.424;8.420;2023-04-15T12:53:43;19.40;56.50
20856;DHT22;63058;49.424;8.420;2023-04-15T12:56:09;19.30;55.90
20856;DHT22;63058;49.424;8.420;2023-04-15T12:58:35;19.20;55.50
20856;DHT22;63058;49.424;8.420;2023-04-15T13:01:01;19.00;55.50
20856;DHT22;63058;49.424;8.420;2023-04-15T13:03:27;18.90;55.10
20856;DHT22;63058;49.424;8.420;2023-04-15T13:05:52;18.80;55.20
20856;DHT22;63058;49.424;8.420;2023-04-15T13:08:18;18.70;56.10
20856;DHT22;63058;49.424;8.420;2023-04-15T13:10:44;18.60;55.50
20856;DHT22;63058;49.424;8.420;2023-04-15T13:13:09;18.60;56.10
20856;DHT22;63058;49.424;8.420;2023-04-15T13:15:35;18.60;54.30
20856;DHT22;63058;49.424;8.420;2023-04-15T13:18:01;18.50;54.80
20856;DHT22;63058;49.424;8.420;2023-04-15T13:20:27;18.50;54.80
20856;DHT22;63058;49.424;8.420;2023-04-15T13:22:53;18.40;52.30
20856;DHT22;63058;49.424;8.420;2023-04-15T13:25:19;18.40;52.50
20856;DHT22;63058;49.424;8.420;2023-04-15T13:27:44;18.30;51.90
20856;DHT22;63058;49.424;8.420;2023-04-15T13:30:11;18.30;53.00
20856;DHT22;63058;49.424;8.420;2023-04-15T13:32:36;18.30;53.40
20856;DHT22;63058;49.424;8.420;2023-04-15T13:35:02;18.20;54.80
20856;DHT22;63058;49.424;8.420;2023-04-15T13:37:29;18.20;55.50
20856;DHT22;63058;49.424;8.420;2023-04-15T13:39:55;18.20;55.70
20856;DHT22;63058;49.424;8.420;2023-04-15T13:42:23;18.30;56.30
20856;DHT22;63058;49.424;8.420;2023-04-15T13:44:49;18.40;55.20
20856;DHT22;63058;49.424;8.420;2023-04-15T13:47:18;18.40;54.20
20856;DHT22;63058;49.424;8.420;2023-04-15T13:49:44;18.40;51.70
20856;DHT22;63058;49.424;8.420;2023-04-15T13:52:11;18.40;53.30
20856;DHT22;63058;49.424;8.420;2023-04-15T13:54:37;18.40;53.70
20856;DHT22;63058;49.424;8.420;2023-04-15T13:57:02;18.50;52.50
20856;DHT22;63058;49.424;8.420;2023-04-15T13:59:28;18.50;54.80
20856;DHT22;63058;49.424;8.420;2023-04-15T14:01:54;18.50;54.40
20856;DHT22;63058;49.424;8.420;2023-04-15T14:04:19;18.60;54.20
20856;DHT22;63058;49.424;8.420;2023-04-15T14:06:45;18.60;52.60
20856;DHT22;63058;49.424;8.420;2023-04-15T14:09:11;18.60;52.30
20856;DHT22;63058;49.424;8.420;2023-04-15T14:11:39;18.50;53.30
20856;DHT22;63058;49.424;8.420;2023-04-15T14:14:05;18.50;53.20
20856;DHT22;63058;49.424;8.420;2023-04-15T14:16:34;18.50;54.50
20856;DHT22;63058;49.424;8.420;2023-04-15T14:19:00;18.50;54.70
20856;DHT22;63058;49.424;8.420;2023-04-15T14:21:26;18.60;54.90
20856;DHT22;63058;49.424;8.420;2023-04-15T14:23:56;18.60;54.90
20856;DHT22;63058;49.424;8.420;2023-04-15T14:26:22;18.60;54.00
20856;DHT22;63058;49.424;8.420;2023-04-15T14:28:47;18.70;54.30
20856;DHT22;63058;49.424;8.420;2023-04-15T14:31:13;18.60;56.20
20856;DHT22;63058;49.424;8.420;2023-04-15T14:33:39;18.60;56.00
20856;DHT22;63058;49.424;8.420;2023-04-15T14:36:06;18.60;56.50
20856;DHT22;63058;49.424;8.420;2023-04-15T14:38:35;18.60;56.90
20856;DHT22;63058;49.424;8.420;2023-04-15T14:41:04;18.60;57.10
20856;DHT22;63058;49.424;8.420;2023-04-15T14:43:30;18.50;57.80
20856;DHT22;63058;49.424;8.420;2023-04-15T14:45:56;18.50;58.30
20856;DHT22;63058;49.424;8.420;2023-04-15T14:48:22;18.50;58.50
20856;DHT22;63058;49.424;8.420;2023-04-15T14:50:47;18.50;58.60
20856;DHT22;63058;49.424;8.420;2023-04-15T14:53:13;18.50;59.20
20856;DHT22;63058;49.424;8.420;2023-04-15T14:55:39;18.50;59.80
20856;DHT22;63058;49.424;8.420;2023-04-15T14:58:05;18.50;60.20
20856;DHT22;63058;49.424;8.420;2023-04-15T15:00:32;18.60;60.20
20856;DHT22;63058;49.424;8.420;2023-04-15T15:02:58;18.70;60.70
20856;DHT22;63058;49.424;8.420;2023-04-15T15:05:23;18.70;60.80
20856;DHT22;63058;49.424;8.420;2023-04-15T15:07:49;18.60;61.10
20856;DHT22;63058;49.424;8.420;2023-04-15T15:10:15;18.60;60.90
20856;DHT22;63058;49.424;8.420;2023-04-15T15:12:41;18.50;60.90
20856;DHT22;63058;49.424;8.420;2023-04-15T15:15:07;18.40;60.90
20856;DHT22;63058;49.424;8.420;2023-04-15T15:17:34;18.20;60.90
20856;DHT22;63058;49.424;8.420;2023-04-15T15:20:00;18.10;61.30
20856;DHT22;63058;49.424;8.420;2023-04-15T15:22:26;18.00;61.70
20856;DHT22;63058;49.424;8.420;2023-04-15T15:24:51;17.90;62.30
20856;DHT22;63058;49.424;8.420;2023-04-15T15:27:18;17.70;62.60
20856;DHT22;63058;49.424;8.420;2023-04-15T15:29:43;17.60;63.00
20856;DHT22;63058;49.424;8.420;2023-04-15T15:32:09;17.50;63.40
20856;DHT22;63058;49.424;8.420;2023-04-15T15:34:35;17.40;63.50
20856;DHT22;63058;49.424;8.420;2023-04-15T15:37:00;17.40;63.90
20856;DHT22;63058;49.424;8.420;2023-04-15T15:39:26;17.30;64.20
20856;DHT22;63058;49.424;8.420;2023-04-15T15:41:52;17.20;64.40
20856;DHT22;63058;49.424;8.420;2023-04-15T15:44:17;17.10;64.50
20856;DHT22;63058;49.424;8.420;2023-04-15T15:46:43;17.10;64.60
20856;DHT22;63058;49.424;8.420;2023-04-15T15:49:10;16.90;65.00
20856;DHT22;63058;49.424;8.420;2023-04-15T15:51:35;16.90;65.40
20856;DHT22;63058;49.424;8.420;2023-04-15T15:54:01;16.80;65.70
20856;DHT22;63058;49.424;8.420;2023-04-15T15:56:27;16.70;65.90
20856;DHT22;63058;49.424;8.420;2023-04-15T15:58:52;16.60;66.40
20856;DHT22;63058;49.424;8.420;2023-04-15T16:01:18;16.40;66.90
20856;DHT22;63058;49.424;8.420;2023-04-15T16:03:44;16.30;68.10
20856;DHT22;63058;49.424;8.420;2023-04-15T16:06:10;16.10;68.90
20856;DHT22;63058;49.424;8.420;2023-04-15T16:08:35;15.90;70.00
20856;DHT22;63058;49.424;8.420;2023-04-15T16:11:01;15.80;70.90